createdAt,value
2016-02-12T00:00:46.787Z,4.59
2016-02-12T00:01:46.757Z,4.53
2016-02-12T00:02:46.729Z,4.56
2016-02-12T00:03:46.701Z,4.63
2016-02-12T00:04:46.673Z,4.53
2016-02-12T00:05:46.644Z,4.55
2016-02-12T00:06:46.615Z,4.6
2016-02-12T00:07:46.587Z,4.6
2016-02-12T00:08:46.560Z,4.5
2016-02-12T00:09:46.530Z,4.55
2016-02-12T00:10:46.493Z,4.5
2016-02-12T00:11:46.483Z,4.56
2016-02-12T00:12:46.440Z,4.49
2016-02-12T00:13:46.426Z,4.59
2016-02-12T00:14:46.382Z,4.56
2016-02-12T00:15:46.353Z,4.56
2016-02-12T00:16:46.326Z,4.5
2016-02-12T00:17:46.297Z,4.53
2016-02-12T00:18:46.268Z,4.56
2016-02-12T00:19:46.241Z,4.52
2016-02-12T00:20:46.212Z,4.5
2016-02-12T00:21:46.184Z,4.45
2016-02-12T00:22:46.154Z,4.53
2016-02-12T00:23:46.100Z,4.5
2016-02-12T00:24:46.076Z,4.49
2016-02-12T00:25:46.035Z,4.41
2016-02-12T00:26:45.979Z,4.49
2016-02-12T00:27:45.954Z,4.44
2016-02-12T00:28:45.916Z,4.44
2016-02-12T00:29:45.884Z,4.4
2016-02-12T00:30:45.850Z,4.37
2016-02-12T00:31:45.818Z,4.38
2016-02-12T00:32:45.785Z,4.45
2016-02-12T00:33:45.755Z,4.44
2016-02-12T00:34:45.725Z,4.48
2016-02-12T00:35:45.680Z,4.48
2016-02-12T00:36:45.666Z,4.42
2016-02-12T00:37:45.623Z,4.45
2016-02-12T00:38:45.594Z,4.42
2016-02-12T00:39:45.579Z,4.48
2016-02-12T00:40:45.535Z,4.41
2016-02-12T00:41:45.505Z,4.41
2016-02-12T00:42:45.474Z,4.4
2016-02-12T00:43:45.445Z,4.48
2016-02-12T00:44:45.416Z,4.41
2016-02-12T00:45:45.388Z,4.52
2016-02-12T00:46:45.374Z,4.5
2016-02-12T00:47:45.329Z,4.45
2016-02-12T00:48:45.301Z,4.52
2016-02-12T00:49:45.289Z,4.56
2016-02-12T00:50:45.245Z,4.49
2016-02-12T00:51:45.231Z,4.5
2016-02-12T00:52:45.187Z,4.56
2016-02-12T00:53:45.159Z,4.62
2016-02-12T00:54:45.131Z,4.6
2016-02-12T00:55:45.102Z,4.55
2016-02-12T00:56:45.074Z,4.59
2016-02-12T00:57:45.045Z,4.59
2016-02-12T00:58:45.018Z,4.75
2016-02-12T00:59:44.988Z,4.74
2016-02-12T01:00:44.960Z,4.7
2016-02-12T01:01:44.932Z,4.7
2016-02-12T01:02:44.912Z,4.73
2016-02-12T01:03:44.883Z,4.86
2016-02-12T01:04:44.854Z,4.78
2016-02-12T01:05:44.810Z,4.9
2016-02-12T01:06:44.782Z,4.87
2016-02-12T01:07:44.753Z,4.86
2016-02-12T01:08:44.724Z,4.87
2016-02-12T01:09:44.696Z,4.99
2016-02-12T01:10:44.668Z,4.97
2016-02-12T01:11:44.657Z,5
2016-02-12T01:12:44.694Z,4.96
2016-02-12T01:13:44.588Z,5.05
2016-02-12T01:14:44.560Z,5.05
2016-02-12T01:15:44.530Z,5.11
2016-02-12T01:16:44.502Z,5.08
2016-02-12T01:17:44.489Z,5.04
2016-02-12T01:18:44.445Z,5.12
2016-02-12T01:19:44.417Z,5.14
2016-02-12T01:20:44.388Z,5.14
2016-02-12T01:21:44.376Z,5.12
2016-02-12T01:22:44.344Z,5.12
2016-02-12T01:23:44.300Z,5.11
2016-02-12T01:24:44.272Z,5.26
2016-02-12T01:25:44.243Z,5.26
2016-02-12T01:26:44.230Z,5.25
2016-02-12T01:27:44.185Z,5.29
2016-02-12T01:28:44.157Z,5.25
2016-02-12T01:29:44.129Z,5.28
2016-02-12T01:30:44.101Z,5.32
2016-02-12T01:31:44.088Z,5.25
2016-02-12T01:32:44.044Z,5.29
2016-02-12T01:33:44.047Z,5.26
2016-02-12T01:34:44.002Z,5.25
2016-02-12T01:35:43.975Z,5.3
2016-02-12T01:36:43.947Z,5.33
2016-02-12T01:37:43.761Z,5.28
2016-02-12T01:38:43.889Z,5.36
2016-02-12T01:39:43.864Z,5.32
2016-02-12T01:40:43.836Z,5.3
2016-02-12T01:41:43.822Z,5.32
2016-02-12T01:42:43.778Z,5.35
2016-02-12T01:43:43.753Z,5.35
2016-02-12T01:44:43.724Z,5.38
2016-02-12T01:45:43.695Z,5.36
2016-02-12T01:46:43.667Z,5.38
2016-02-12T01:47:43.639Z,5.41
2016-02-12T01:48:43.611Z,5.38
2016-02-12T01:49:43.582Z,5.38
2016-02-12T01:50:43.553Z,5.39
2016-02-12T01:51:43.369Z,5.44
2016-02-12T01:52:43.497Z,5.38
2016-02-12T01:53:43.483Z,5.43
2016-02-12T01:54:43.439Z,5.44
2016-02-12T01:55:43.411Z,5.47
2016-02-12T01:56:43.382Z,5.43
2016-02-12T01:57:43.354Z,5.43
2016-02-12T01:58:43.326Z,5.44
2016-02-12T01:59:43.313Z,5.43
2016-02-12T02:00:43.269Z,5.46
2016-02-12T02:01:43.256Z,5.32
2016-02-12T02:02:43.227Z,5.32
2016-02-12T02:03:43.183Z,5.44
2016-02-12T02:04:43.169Z,5.32
2016-02-12T02:05:43.126Z,5.41
2016-02-12T02:06:43.114Z,5.38
2016-02-12T02:07:43.085Z,5.35
2016-02-12T02:08:43.042Z,5.46
2016-02-12T02:09:43.028Z,5.35
2016-02-12T02:10:43.000Z,5.26
2016-02-12T02:11:42.971Z,5.36
2016-02-12T02:12:42.942Z,5.32
2016-02-12T02:13:42.915Z,5.36
2016-02-12T02:14:42.888Z,5.39
2016-02-12T02:15:42.859Z,5.46
2016-02-12T02:16:42.830Z,5.46
2016-02-12T02:17:42.818Z,5.38
2016-02-12T02:18:42.773Z,5.29
2016-02-12T02:19:42.760Z,5.46
2016-02-12T02:20:42.716Z,5.46
2016-02-12T02:21:42.704Z,5.29
2016-02-12T02:22:42.659Z,5.44
2016-02-12T02:23:42.630Z,5.38
2016-02-12T02:24:42.618Z,5.44
2016-02-12T02:25:42.589Z,5.29
2016-02-12T02:26:42.545Z,5.44
2016-02-12T02:27:42.516Z,5.32
2016-02-12T02:28:42.503Z,5.44
2016-02-12T02:29:42.459Z,5.3
2016-02-12T02:30:42.431Z,5.28
2016-02-12T02:31:42.402Z,5.32
2016-02-12T02:32:42.389Z,5.3
2016-02-12T02:33:42.361Z,5.32
2016-02-12T02:34:42.332Z,5.33
2016-02-12T02:35:42.303Z,5.29
2016-02-12T02:36:42.275Z,5.33
2016-02-12T02:37:42.262Z,5.3
2016-02-12T02:38:42.217Z,5.32
2016-02-12T02:39:42.189Z,5.28
2016-02-12T02:40:42.162Z,5.23
2016-02-12T02:41:42.133Z,5.25
2016-02-12T02:42:42.108Z,5.3
2016-02-12T02:43:42.080Z,5.14
2016-02-12T02:44:42.051Z,5.25
2016-02-12T02:45:42.022Z,5.23
2016-02-12T02:46:42.010Z,5.26
2016-02-12T02:47:41.824Z,5.25
2016-02-12T02:48:41.939Z,5.21
2016-02-12T02:49:41.910Z,5.21
2016-02-12T02:50:41.882Z,5.28
2016-02-12T02:51:41.854Z,5.25
2016-02-12T02:52:41.826Z,5.23
2016-02-12T02:53:41.797Z,5.11
2016-02-12T02:54:41.768Z,5.21
2016-02-12T02:55:41.741Z,5.21
2016-02-12T02:56:41.712Z,5.17
2016-02-12T02:57:41.682Z,5.07
2016-02-12T02:58:41.654Z,5.17
2016-02-12T02:59:41.626Z,5.23
2016-02-12T03:00:41.599Z,5.2
2016-02-12T03:01:41.570Z,5.26
2016-02-12T03:02:41.542Z,5.21
2016-02-12T03:03:41.513Z,5.15
2016-02-12T03:04:41.485Z,5.18
2016-02-12T03:05:41.456Z,5.26
2016-02-12T03:06:41.428Z,5.11
2016-02-12T03:07:41.399Z,5.21
2016-02-12T03:08:41.373Z,5.08
2016-02-12T03:09:41.344Z,5.2
2016-02-12T03:10:41.315Z,5.11
2016-02-12T03:11:41.292Z,5.15
2016-02-12T03:12:41.263Z,5.18
2016-02-12T03:13:41.297Z,5.17
2016-02-12T03:14:41.207Z,5.15
2016-02-12T03:15:41.179Z,5.1
2016-02-12T03:16:41.149Z,5.05
2016-02-12T03:17:41.122Z,5.02
2016-02-12T03:18:41.094Z,5.04
2016-02-12T03:19:41.066Z,5.02
2016-02-12T03:20:41.052Z,5
2016-02-12T03:21:41.008Z,5.08
2016-02-12T03:22:40.980Z,5.02
2016-02-12T03:23:40.951Z,5.02
2016-02-12T03:24:40.922Z,5.02
2016-02-12T03:25:40.894Z,5
2016-02-12T03:26:40.865Z,5.11
2016-02-12T03:27:40.853Z,5.02
2016-02-12T03:28:40.808Z,5
2016-02-12T03:29:40.779Z,5.05
2016-02-12T03:30:40.751Z,5.04
2016-02-12T03:31:40.723Z,5.04
2016-02-12T03:32:40.693Z,5.1
2016-02-12T03:33:40.665Z,5.1
2016-02-12T03:34:40.653Z,5.14
2016-02-12T03:35:40.610Z,5.14
2016-02-12T03:36:40.580Z,5.12
2016-02-12T03:37:40.553Z,5.14
2016-02-12T03:38:40.525Z,5.12
2016-02-12T03:39:40.496Z,5.14
2016-02-12T03:40:40.467Z,5.18
2016-02-12T03:41:40.455Z,5.12
2016-02-12T03:42:40.425Z,5.07
2016-02-12T03:43:40.386Z,5.21
2016-02-12T03:44:40.357Z,5.25
2016-02-12T03:45:40.329Z,5.29
2016-02-12T03:46:40.300Z,5.25
2016-02-12T03:47:40.287Z,5.29
2016-02-12T03:48:40.258Z,5.28
2016-02-12T03:49:40.230Z,5.23
2016-02-12T03:50:40.200Z,5.3
2016-02-12T03:51:40.173Z,5.28
2016-02-12T03:52:40.128Z,5.29
2016-02-12T03:53:40.100Z,5.26
2016-02-12T03:54:40.087Z,5.28
2016-02-12T03:55:40.043Z,5.29
2016-02-12T03:56:40.015Z,5.29
2016-02-12T03:57:39.986Z,5.3
2016-02-12T03:58:39.958Z,5.3
2016-02-12T03:59:39.945Z,5.33
2016-02-12T04:00:39.916Z,5.36
2016-02-12T04:01:39.888Z,5.35
2016-02-12T04:02:39.843Z,5.36
2016-02-12T04:03:39.831Z,5.44
2016-02-12T04:04:39.803Z,5.43
2016-02-12T04:05:39.758Z,5.39
2016-02-12T04:06:39.745Z,5.51
2016-02-12T04:07:39.717Z,5.41
2016-02-12T04:08:39.688Z,5.39
2016-02-12T04:09:39.503Z,5.43
2016-02-12T04:10:39.631Z,5.41
2016-02-12T04:11:39.605Z,5.44
2016-02-12T04:12:39.580Z,5.39
2016-02-12T04:13:39.551Z,5.36
2016-02-12T04:14:39.523Z,5.39
2016-02-12T04:15:39.495Z,5.46
2016-02-12T04:16:39.481Z,5.38
2016-02-12T04:17:39.438Z,5.41
2016-02-12T04:18:39.409Z,5.44
2016-02-12T04:19:39.381Z,5.48
2016-02-12T04:20:39.355Z,5.43
2016-02-12T04:21:39.325Z,5.43
2016-02-12T04:22:39.297Z,5.47
2016-02-12T04:23:39.269Z,5.46
2016-02-12T04:24:39.240Z,5.41
2016-02-12T04:25:39.211Z,5.48
2016-02-12T04:26:39.183Z,5.51
2016-02-12T04:27:39.154Z,5.41
2016-02-12T04:28:39.128Z,5.47
2016-02-12T04:29:39.098Z,5.41
2016-02-12T04:30:39.071Z,5.39
2016-02-12T04:31:39.073Z,5.51
2016-02-12T04:32:39.028Z,5.33
2016-02-12T04:33:38.985Z,5.43
2016-02-12T04:34:38.956Z,5.41
2016-02-12T04:35:38.928Z,5.54
2016-02-12T04:36:38.915Z,5.56
2016-02-12T04:37:38.887Z,5.39
2016-02-12T04:38:38.859Z,5.44
2016-02-12T04:39:38.815Z,5.47
2016-02-12T04:40:38.788Z,5.47
2016-02-12T04:41:38.759Z,5.47
2016-02-12T04:42:38.732Z,5.53
2016-02-12T04:43:38.703Z,5.46
2016-02-12T04:44:38.690Z,5.48
2016-02-12T04:45:38.661Z,5.51
2016-02-12T04:46:38.635Z,5.44
2016-02-12T04:47:38.605Z,5.47
2016-02-12T04:48:38.578Z,5.41
2016-02-12T04:49:38.549Z,5.5
2016-02-12T04:50:38.521Z,5.46
2016-02-12T04:51:38.492Z,5.48
2016-02-12T04:52:38.480Z,5.44
2016-02-12T04:53:38.435Z,5.51
2016-02-12T04:54:38.422Z,5.5
2016-02-12T04:55:38.377Z,5.51
2016-02-12T04:56:38.350Z,5.51
2016-02-12T04:57:38.321Z,5.53
2016-02-12T04:58:38.292Z,5.54
2016-02-12T04:59:38.263Z,5.46
2016-02-12T05:00:38.235Z,5.51
2016-02-12T05:01:38.222Z,5.59
2016-02-12T05:02:38.179Z,5.51
2016-02-12T05:03:38.165Z,5.54
2016-02-12T05:04:38.137Z,5.54
2016-02-12T05:05:38.107Z,5.51
2016-02-12T05:06:38.066Z,5.48
2016-02-12T05:07:38.052Z,5.48
2016-02-12T05:08:38.023Z,5.47
2016-02-12T05:09:37.994Z,5.48
2016-02-12T05:10:37.232Z,5.48
2016-02-12T05:11:37.770Z,5.48
2016-02-12T05:12:37.915Z,5.51
2016-02-12T05:13:37.885Z,5.54
2016-02-12T05:14:37.857Z,5.56
2016-02-12T05:15:37.828Z,5.57
2016-02-12T05:16:37.800Z,5.57
2016-02-12T05:17:37.771Z,5.56
2016-02-12T05:18:37.743Z,5.59
2016-02-12T05:19:37.715Z,5.53
2016-02-12T05:20:37.687Z,5.53
2016-02-12T05:21:37.673Z,5.59
2016-02-12T05:22:37.630Z,5.56
2016-02-12T05:23:37.602Z,5.59
2016-02-12T05:24:37.573Z,5.62
2016-02-12T05:25:37.561Z,5.59
2016-02-12T05:26:37.516Z,5.61
2016-02-12T05:27:37.487Z,5.66
2016-02-12T05:28:37.459Z,5.66
2016-02-12T05:29:37.508Z,5.54
2016-02-12T05:30:37.480Z,5.59
2016-02-12T05:31:37.388Z,5.68
2016-02-12T05:32:37.376Z,5.61
2016-02-12T05:33:37.316Z,5.68
2016-02-12T05:34:37.304Z,5.71
2016-02-12T05:35:37.275Z,5.69
2016-02-12T05:36:37.246Z,5.66
2016-02-12T05:37:37.217Z,5.65
2016-02-12T05:38:37.190Z,5.65
2016-02-12T05:39:37.176Z,5.66
2016-02-12T05:40:37.138Z,5.68
2016-02-12T05:41:37.110Z,5.64
2016-02-12T05:42:37.080Z,5.59
2016-02-12T05:43:37.054Z,5.65
2016-02-12T05:44:37.025Z,5.68
2016-02-12T05:45:36.997Z,5.64
2016-02-12T05:46:36.968Z,5.61
2016-02-12T05:47:36.939Z,5.57
2016-02-12T05:48:36.911Z,5.57
2016-02-12T05:49:36.884Z,5.66
2016-02-12T05:50:36.854Z,5.62
2016-02-12T05:51:36.843Z,5.54
2016-02-12T05:52:36.798Z,5.56
2016-02-12T05:53:36.770Z,5.51
2016-02-12T05:54:36.740Z,5.48
2016-02-12T05:55:36.728Z,5.48
2016-02-12T05:56:36.684Z,5.51
2016-02-12T05:57:36.673Z,5.47
2016-02-12T05:58:36.629Z,5.43
2016-02-12T05:59:36.617Z,5.38
2016-02-12T06:00:36.575Z,5.51
2016-02-12T06:01:36.547Z,5.44
2016-02-12T06:02:36.518Z,5.41
2016-02-12T06:03:36.489Z,5.44
2016-02-12T06:04:36.476Z,5.48
2016-02-12T06:05:36.433Z,5.5
2016-02-12T06:06:36.420Z,5.44
2016-02-12T06:07:36.375Z,5.41
2016-02-12T06:08:36.362Z,5.39
2016-02-12T06:09:36.334Z,5.35
2016-02-12T06:10:36.293Z,5.3
2016-02-12T06:11:36.265Z,5.32
2016-02-12T06:12:36.252Z,5.25
2016-02-12T06:13:36.223Z,5.28
2016-02-12T06:14:36.179Z,5.28
2016-02-12T06:15:36.167Z,5.28
2016-02-12T06:16:36.137Z,5.28
2016-02-12T06:17:36.110Z,5.29
2016-02-12T06:18:36.082Z,5.28
2016-02-12T06:19:36.053Z,5.21
2016-02-12T06:20:36.024Z,5.26
2016-02-12T06:21:35.995Z,5.25
2016-02-12T06:22:35.968Z,5.28
2016-02-12T06:23:35.939Z,5.29
2016-02-12T06:24:35.910Z,5.21
2016-02-12T06:25:35.882Z,5.32
2016-02-12T06:26:35.854Z,5.25
2016-02-12T06:27:35.825Z,5.17
2016-02-12T06:28:35.813Z,5.11
2016-02-12T06:29:35.768Z,5.21
2016-02-12T06:30:35.740Z,5.21
2016-02-12T06:31:35.711Z,5.17
2016-02-12T06:32:35.683Z,5.28
2016-02-12T06:33:35.654Z,5.17
2016-02-12T06:34:35.628Z,5.18
2016-02-12T06:35:35.615Z,5.25
2016-02-12T06:36:35.571Z,5.2
2016-02-12T06:37:35.542Z,5.11
2016-02-12T06:38:35.529Z,5.28
2016-02-12T06:39:35.501Z,5.26
2016-02-12T06:40:35.472Z,5.33
2016-02-12T06:41:35.445Z,5.25
2016-02-12T06:42:35.415Z,5.32
2016-02-12T06:43:35.390Z,5.26
2016-02-12T06:44:35.345Z,5.32
2016-02-12T06:45:35.318Z,5.35
2016-02-12T06:46:35.289Z,5.26
2016-02-12T06:47:35.260Z,5.36
2016-02-12T06:48:35.248Z,5.3
2016-02-12T06:49:35.218Z,5.26
2016-02-12T06:50:35.190Z,5.33
2016-02-12T06:51:35.162Z,5.33
2016-02-12T06:52:35.135Z,5.26
2016-02-12T06:53:35.105Z,5.33
2016-02-12T06:54:35.062Z,5.29
2016-02-12T06:55:35.049Z,5.36
2016-02-12T06:56:35.021Z,5.38
2016-02-12T06:57:34.992Z,5.39
2016-02-12T06:58:34.963Z,5.41
2016-02-12T06:59:34.935Z,5.41
2016-02-12T07:00:34.922Z,5.47
2016-02-12T07:01:34.895Z,5.48
2016-02-12T07:02:34.850Z,5.53
2016-02-12T07:03:34.822Z,5.53
2016-02-12T07:04:34.794Z,5.48
2016-02-12T07:05:34.765Z,5.53
2016-02-12T07:06:34.737Z,5.54
2016-02-12T07:07:34.725Z,5.43
2016-02-12T07:08:34.680Z,5.39
2016-02-12T07:09:34.527Z,5.48
2016-02-12T07:10:34.639Z,5.41
2016-02-12T07:11:34.599Z,5.44
2016-02-12T07:12:34.571Z,5.46
2016-02-12T07:13:34.541Z,5.39
2016-02-12T07:14:34.514Z,5.35
2016-02-12T07:15:34.485Z,5.41
2016-02-12T07:16:34.456Z,5.39
2016-02-12T07:17:34.444Z,5.44
2016-02-12T07:18:34.415Z,5.47
2016-02-12T07:19:34.371Z,5.51
2016-02-12T07:20:34.342Z,5.51
2016-02-12T07:21:34.329Z,5.57
2016-02-12T07:22:34.301Z,5.64
2016-02-12T07:23:34.271Z,5.54
2016-02-12T07:24:34.243Z,5.56
2016-02-12T07:25:34.215Z,5.53
2016-02-12T07:26:34.186Z,5.62
2016-02-12T07:27:34.158Z,5.59
2016-02-12T07:28:34.129Z,5.56
2016-02-12T07:29:34.101Z,5.62
2016-02-12T07:30:34.072Z,5.56
2016-02-12T07:31:34.043Z,5.5
2016-02-12T07:32:34.015Z,5.54
2016-02-12T07:33:33.986Z,5.59
2016-02-12T07:34:33.974Z,5.57
2016-02-12T07:35:33.929Z,5.61
2016-02-12T07:36:33.900Z,5.62
2016-02-12T07:37:33.872Z,5.64
2016-02-12T07:38:33.860Z,5.65
2016-02-12T07:39:33.831Z,5.64
2016-02-12T07:40:33.804Z,5.66
2016-02-12T07:41:33.775Z,5.75
2016-02-12T07:42:33.746Z,5.76
2016-02-12T07:43:33.718Z,5.69
2016-02-12T07:44:33.690Z,5.71
2016-02-12T07:45:33.661Z,5.69
2016-02-12T07:46:33.633Z,5.69
2016-02-12T07:47:33.621Z,5.75
2016-02-12T07:48:33.592Z,5.79
2016-02-12T07:49:33.547Z,5.76
2016-02-12T07:50:33.536Z,5.76
2016-02-12T07:51:33.491Z,5.76
2016-02-12T07:52:33.462Z,5.76
2016-02-12T07:53:33.449Z,5.89
2016-02-12T07:54:33.421Z,5.82
2016-02-12T07:55:33.394Z,5.89
2016-02-12T07:56:33.364Z,5.89
2016-02-12T07:57:33.336Z,5.86
2016-02-12T07:58:33.308Z,5.86
2016-02-12T07:59:33.279Z,5.98
2016-02-12T08:00:33.266Z,5.9
2016-02-12T08:01:33.222Z,5.98
2016-02-12T08:02:33.193Z,5.89
2016-02-12T08:03:33.167Z,5.93
2016-02-12T08:04:33.154Z,5.99
2016-02-12T08:05:33.125Z,6.04
2016-02-12T08:06:33.096Z,6.05
2016-02-12T08:07:33.068Z,5.93
2016-02-12T08:08:33.056Z,6.07
2016-02-12T08:09:33.026Z,6.07
2016-02-12T08:10:32.982Z,6.02
2016-02-12T08:11:32.954Z,6.09
2016-02-12T08:12:32.926Z,5.94
2016-02-12T08:13:32.901Z,5.89
2016-02-12T08:14:32.872Z,6.11
2016-02-12T08:15:32.844Z,5.98
2016-02-12T08:16:32.831Z,6.02
2016-02-12T08:17:32.788Z,6.07
2016-02-12T08:18:32.774Z,6.05
2016-02-12T08:19:32.746Z,6.12
2016-02-12T08:20:32.717Z,6.14
2016-02-12T08:21:32.690Z,6.07
2016-02-12T08:22:32.677Z,6.16
2016-02-12T08:23:32.637Z,6.07
2016-02-12T08:24:32.608Z,6.19
2016-02-12T08:25:32.595Z,6.26
2016-02-12T08:26:32.551Z,6.28
2016-02-12T08:27:32.537Z,6.28
2016-02-12T08:28:32.534Z,6.31
2016-02-12T08:29:32.480Z,6.3
2016-02-12T08:30:32.467Z,6.3
2016-02-12T08:31:32.418Z,6.26
2016-02-12T08:32:32.390Z,6.28
2016-02-12T08:33:32.376Z,6.44
2016-02-12T08:34:32.349Z,6.28
2016-02-12T08:35:32.320Z,6.42
2016-02-12T08:36:32.292Z,6.36
2016-02-12T08:37:32.263Z,6.38
2016-02-12T08:38:32.250Z,6.46
2016-02-12T08:39:32.222Z,6.56
2016-02-12T08:40:32.209Z,6.46
2016-02-12T08:41:32.153Z,6.52
2016-02-12T08:42:32.141Z,6.51
2016-02-12T08:43:32.112Z,6.45
2016-02-12T08:44:32.085Z,6.51
2016-02-12T08:45:32.057Z,6.52
2016-02-12T08:46:32.029Z,6.46
2016-02-12T08:47:32.015Z,6.51
2016-02-12T08:48:31.972Z,6.48
2016-02-12T08:49:31.960Z,6.49
2016-02-12T08:50:31.917Z,6.49
2016-02-12T08:51:31.903Z,6.41
2016-02-12T08:52:31.875Z,6.46
2016-02-12T08:53:31.846Z,6.45
2016-02-12T08:54:31.833Z,6.51
2016-02-12T08:55:31.805Z,6.44
2016-02-12T08:56:31.792Z,6.46
2016-02-12T08:57:31.747Z,6.49
2016-02-12T08:58:31.720Z,6.51
2016-02-12T08:59:31.692Z,6.48
2016-02-12T09:00:31.662Z,6.46
2016-02-12T09:01:31.650Z,6.52
2016-02-12T09:02:31.621Z,6.48
2016-02-12T09:03:31.577Z,6.49
2016-02-12T09:04:31.564Z,6.45
2016-02-12T09:05:31.541Z,6.42
2016-02-12T09:06:31.512Z,6.39
2016-02-12T09:07:31.483Z,6.3
2016-02-12T09:08:31.470Z,6.22
2016-02-12T09:09:31.427Z,6.28
2016-02-12T09:10:31.413Z,6.44
2016-02-12T09:11:31.369Z,6.35
2016-02-12T09:12:31.344Z,6.39
2016-02-12T09:13:31.314Z,6.28
2016-02-12T09:14:31.349Z,6.27
2016-02-12T09:15:31.275Z,6.39
2016-02-12T09:16:31.231Z,6.27
2016-02-12T09:17:31.217Z,6.3
2016-02-12T09:18:31.188Z,6.2
2016-02-12T09:19:31.176Z,6.26
2016-02-12T09:20:31.132Z,6.24
2016-02-12T09:21:31.104Z,6.14
2016-02-12T09:22:31.091Z,6.14
2016-02-12T09:23:31.062Z,6.11
2016-02-12T09:24:31.020Z,6.14
2016-02-12T09:25:31.008Z,6.17
2016-02-12T09:26:30.978Z,6.08
2016-02-12T09:27:30.951Z,6.16
2016-02-12T09:28:30.923Z,6.09
2016-02-12T09:29:30.906Z,6.12
2016-02-12T09:30:30.850Z,6.17
2016-02-12T09:31:30.808Z,6.12
2016-02-12T09:32:30.768Z,6.14
2016-02-12T09:33:30.732Z,6.12
2016-02-12T09:34:30.692Z,6.12
2016-02-12T09:35:30.676Z,6.09
2016-02-12T09:36:30.627Z,6.04
2016-02-12T09:37:30.608Z,6.02
2016-02-12T09:38:30.559Z,6.17
2016-02-12T09:39:30.544Z,6.04
2016-02-12T09:40:30.356Z,6.07
2016-02-12T09:41:30.483Z,6.12
2016-02-12T09:42:30.454Z,6.14
2016-02-12T09:43:30.424Z,6.16
2016-02-12T09:44:30.410Z,6.16
2016-02-12T09:45:30.366Z,6.19
2016-02-12T09:46:30.383Z,6.09
2016-02-12T09:47:30.307Z,6.09
2016-02-12T09:48:30.293Z,6.14
2016-02-12T09:49:30.264Z,6.14
2016-02-12T09:50:30.235Z,6.24
2016-02-12T09:51:30.254Z,6.16
2016-02-12T09:52:30.165Z,6.12
2016-02-12T09:53:30.153Z,6.12
2016-02-12T09:54:30.124Z,6.11
2016-02-12T09:55:30.096Z,6.24
2016-02-12T09:56:30.068Z,6.3
2016-02-12T09:57:30.039Z,6.22
2016-02-12T09:58:30.041Z,6.24
2016-02-12T09:59:29.981Z,6.3
2016-02-12T10:00:29.953Z,6.31
2016-02-12T10:01:29.940Z,6.3
2016-02-12T10:02:29.912Z,6.35
2016-02-12T10:03:29.865Z,6.28
2016-02-12T10:04:29.852Z,6.27
2016-02-12T10:05:29.825Z,6.3
2016-02-12T10:06:29.812Z,6.31
2016-02-12T10:07:29.768Z,6.3
2016-02-12T10:08:29.818Z,6.3
2016-02-12T10:09:29.710Z,6.33
2016-02-12T10:10:33.887Z,6.28
2016-02-12T10:11:29.657Z,6.28
2016-02-12T10:12:29.627Z,6.42
2016-02-12T10:13:29.603Z,6.45
2016-02-12T10:14:29.575Z,6.46
2016-02-12T10:15:29.561Z,6.42
2016-02-12T10:16:29.533Z,6.39
2016-02-12T10:17:29.505Z,6.44
2016-02-12T10:18:29.477Z,6.41
2016-02-12T10:19:29.448Z,6.44
2016-02-12T10:20:29.420Z,6.46
2016-02-12T10:21:29.391Z,6.48
2016-02-12T10:22:29.362Z,6.42
2016-02-12T10:23:29.397Z,6.44
2016-02-12T10:24:29.322Z,6.42
2016-02-12T10:25:29.293Z,6.46
2016-02-12T10:26:29.264Z,6.44
2016-02-12T10:27:29.269Z,6.41
2016-02-12T10:28:29.209Z,6.46
2016-02-12T10:29:29.180Z,6.49
2016-02-12T10:30:29.152Z,6.44
2016-02-12T10:31:29.123Z,6.46
2016-02-12T10:32:29.095Z,6.46
2016-02-12T10:33:29.082Z,6.45
2016-02-12T10:34:29.053Z,6.48
2016-02-12T10:35:29.024Z,6.51
2016-02-12T10:36:28.997Z,6.45
2016-02-12T10:37:28.969Z,6.49
2016-02-12T10:38:28.940Z,6.56
2016-02-12T10:39:28.913Z,6.51
2016-02-12T10:40:28.884Z,6.51
2016-02-12T10:41:28.856Z,6.46
2016-02-12T10:42:28.828Z,6.48
2016-02-12T10:43:28.804Z,6.46
2016-02-12T10:44:28.775Z,6.49
2016-02-12T10:45:28.747Z,6.49
2016-02-12T10:46:28.733Z,6.52
2016-02-12T10:47:28.712Z,6.46
2016-02-12T10:48:28.667Z,6.51
2016-02-12T10:49:28.638Z,6.57
2016-02-12T10:50:28.610Z,6.46
2016-02-12T10:51:28.581Z,6.51
2016-02-12T10:52:28.568Z,6.48
2016-02-12T10:53:28.540Z,6.54
2016-02-12T10:54:28.511Z,6.48
2016-02-12T10:55:28.483Z,6.52
2016-02-12T10:56:28.454Z,6.52
2016-02-12T10:57:28.441Z,6.57
2016-02-12T10:58:28.397Z,6.63
2016-02-12T10:59:28.384Z,6.63
2016-02-12T11:00:28.355Z,6.67
2016-02-12T11:01:28.327Z,6.57
2016-02-12T11:02:28.299Z,6.64
2016-02-12T11:03:28.269Z,6.63
2016-02-12T11:04:28.243Z,6.62
2016-02-12T11:05:28.214Z,6.67
2016-02-12T11:06:28.185Z,6.67
2016-02-12T11:07:28.156Z,6.67
2016-02-12T11:08:28.143Z,6.69
2016-02-12T11:09:28.099Z,6.75
2016-02-12T11:10:28.086Z,6.67
2016-02-12T11:11:28.074Z,6.7
2016-02-12T11:12:28.029Z,6.72
2016-02-12T11:13:28.002Z,6.75
2016-02-12T11:14:27.976Z,6.75
2016-02-12T11:15:27.962Z,6.69
2016-02-12T11:16:27.920Z,6.78
2016-02-12T11:17:27.906Z,6.7
2016-02-12T11:18:27.878Z,6.7
2016-02-12T11:19:27.833Z,6.77
2016-02-12T11:20:27.821Z,6.7
2016-02-12T11:21:27.792Z,6.72
2016-02-12T11:22:27.765Z,6.7
2016-02-12T11:23:27.736Z,6.69
2016-02-12T11:24:27.707Z,6.77
2016-02-12T11:25:27.695Z,6.67
2016-02-12T11:26:27.666Z,6.75
2016-02-12T11:27:27.637Z,6.75
2016-02-12T11:28:27.609Z,6.72
2016-02-12T11:29:32.334Z,6.78
2016-02-12T11:30:27.822Z,6.75
2016-02-12T11:31:27.528Z,6.81
2016-02-12T11:32:27.500Z,6.79
2016-02-12T11:33:27.470Z,6.79
2016-02-12T11:34:27.286Z,6.85
2016-02-12T11:35:27.430Z,6.79
2016-02-12T11:36:27.400Z,6.81
2016-02-12T11:37:27.372Z,6.87
2016-02-12T11:38:27.344Z,6.81
2016-02-12T11:39:27.317Z,6.82
2016-02-12T11:40:27.289Z,6.88
2016-02-12T11:41:27.261Z,6.96
2016-02-12T11:42:27.248Z,6.93
2016-02-12T11:43:27.219Z,6.97
2016-02-12T11:44:27.195Z,6.95
2016-02-12T11:45:27.167Z,6.97
2016-02-12T11:46:27.138Z,7
2016-02-12T11:47:27.109Z,6.88
2016-02-12T11:48:27.082Z,6.99
2016-02-12T11:49:27.084Z,7.05
2016-02-12T11:50:27.025Z,7.06
2016-02-12T11:51:26.997Z,7.13
2016-02-12T11:52:26.968Z,7.07
2016-02-12T11:53:26.955Z,7.11
2016-02-12T11:54:26.927Z,7.07
2016-02-12T11:55:26.899Z,7.13
2016-02-12T11:56:26.887Z,7.21
2016-02-12T11:57:26.843Z,7.23
2016-02-12T11:58:26.815Z,7.15
2016-02-12T11:59:26.787Z,7.2
2016-02-12T12:00:26.759Z,7.2
2016-02-12T12:01:26.747Z,7.23
2016-02-12T12:02:26.718Z,7.18
2016-02-12T12:03:26.705Z,7.25
2016-02-12T12:04:26.661Z,7.32
2016-02-12T12:05:26.649Z,7.32
2016-02-12T12:06:26.604Z,7.39
2016-02-12T12:07:26.592Z,7.36
2016-02-12T12:08:26.564Z,7.51
2016-02-12T12:09:26.536Z,7.5
2016-02-12T12:10:26.507Z,7.45
2016-02-12T12:11:26.494Z,7.43
2016-02-12T12:12:26.449Z,7.48
2016-02-12T12:13:26.421Z,7.45
2016-02-12T12:14:26.409Z,7.45
2016-02-12T12:15:26.380Z,7.45
2016-02-12T12:16:26.354Z,7.5
2016-02-12T12:17:26.323Z,7.47
2016-02-12T12:18:26.309Z,7.42
2016-02-12T12:19:26.281Z,7.53
2016-02-12T12:20:26.253Z,7.54
2016-02-12T12:21:26.209Z,7.6
2016-02-12T12:22:26.195Z,7.61
2016-02-12T12:23:26.167Z,7.73
2016-02-12T12:24:26.154Z,7.75
2016-02-12T12:25:26.126Z,7.76
2016-02-12T12:26:26.098Z,7.83
2016-02-12T12:27:26.084Z,7.8
2016-02-12T12:28:26.056Z,7.85
2016-02-12T12:29:26.074Z,7.82
2016-02-12T12:30:25.983Z,7.79
2016-02-12T12:31:25.971Z,7.95
2016-02-12T12:32:25.943Z,7.94
2016-02-12T12:33:25.914Z,7.94
2016-02-12T12:34:25.886Z,7.91
2016-02-12T12:35:25.888Z,7.95
2016-02-12T12:36:25.844Z,8
2016-02-12T12:37:25.816Z,8.06
2016-02-12T12:38:25.788Z,8.05
2016-02-12T12:39:25.774Z,8.06
2016-02-12T12:40:25.746Z,8.16
2016-02-12T12:41:25.722Z,8.24
2016-02-12T12:42:25.709Z,8.3
2016-02-12T12:43:25.681Z,8.44
2016-02-12T12:44:25.653Z,8.48
2016-02-12T12:45:25.623Z,8.49
2016-02-12T12:46:25.596Z,8.56
2016-02-12T12:47:25.583Z,8.67
2016-02-12T12:48:25.570Z,8.61
2016-02-12T12:49:25.526Z,8.66
2016-02-12T12:50:25.513Z,8.66
2016-02-12T12:51:25.485Z,8.7
2016-02-12T12:52:25.457Z,8.67
2016-02-12T12:53:25.429Z,8.79
2016-02-12T12:54:25.416Z,8.81
2016-02-12T12:55:25.387Z,8.82
2016-02-12T12:56:25.374Z,8.89
2016-02-12T12:57:25.346Z,8.88
2016-02-12T12:58:25.317Z,9
2016-02-12T12:59:25.288Z,9.02
2016-02-12T13:00:25.278Z,9.03
2016-02-12T13:01:25.248Z,9.1
2016-02-12T13:02:25.221Z,9.18
2016-02-12T13:03:25.208Z,9.18
2016-02-12T13:04:25.179Z,9.14
2016-02-12T13:05:25.167Z,9.11
2016-02-12T13:06:25.137Z,9.14
2016-02-12T13:07:25.109Z,9.1
2016-02-12T13:08:25.081Z,9.08
2016-02-12T13:09:25.069Z,9.06
2016-02-12T13:10:25.057Z,9.02
2016-02-12T13:11:25.122Z,9.06
2016-02-12T13:12:25.016Z,9.04
2016-02-12T13:13:24.987Z,9.02
2016-02-12T13:14:24.943Z,9.02
2016-02-12T13:15:24.931Z,9.02
2016-02-12T13:16:24.903Z,9.06
2016-02-12T13:17:24.873Z,9.1
2016-02-12T13:18:24.861Z,9.04
2016-02-12T13:19:24.833Z,9.08
2016-02-12T13:20:24.820Z,9.03
2016-02-12T13:21:24.776Z,9.06